Time;durP1;ratioP1;P1;durP2;ratioP2;P2;SDS_P1;SDS_P2;PMS_P1;PMS_P2;Temp;Humidity;BMP_temperature;BMP_pressure;BME280_temperature;BME280_humidity;BME280_pressure;Samples;Min_cycle;Max_cycle;Signal;HPM_P1;HPM_P2
2022/04/16 00:01:09;;;;;;;3.28;1.40;;;19.00;60.30;;;;;;5011131;28;20136;-59
2022/04/16 00:03:35;;;;;;;2.95;1.45;;;19.00;60.70;;;;;;5017816;28;20160;-59
2022/04/16 00:06:00;;;;;;;5.50;1.73;;;19.00;60.60;;;;;;5012330;28;20636;-59
2022/04/16 00:08:27;;;;;;;3.42;1.60;;;19.00;60.50;;;;;;5009587;28;20034;-59
2022/04/16 00:10:53;;;;;;;3.13;1.23;;;19.00;60.50;;;;;;5014474;28;20408;-59
2022/04/16 00:13:19;;;;;;;4.57;1.40;;;19.00;60.40;;;;;;5018192;28;20030;-60
2022/04/16 00:15:46;;;;;;;2.85;1.48;;;19.00;60.70;;;;;;5018251;28;20057;-59
2022/04/16 00:18:12;;;;;;;3.15;1.58;;;19.00;60.50;;;;;;5017804;28;20506;-59
2022/04/16 00:20:38;;;;;;;2.65;1.30;;;19.00;60.50;;;;;;5013739;28;20026;-59
2022/04/16 00:23:04;;;;;;;3.13;1.40;;;19.00;60.40;;;;;;5015272;28;20030;-59
2022/04/16 00:25:32;;;;;;;2.47;1.50;;;18.90;60.60;;;;;;5016582;28;20038;-59
2022/04/16 00:27:59;;;;;;;2.08;1.48;;;19.00;60.40;;;;;;5018076;28;20026;-59
2022/04/16 00:30:25;;;;;;;2.92;1.60;;;18.90;60.30;;;;;;5018420;28;20038;-59
2022/04/16 00:32:55;;;;;;;2.95;1.50;;;18.90;60.50;;;;;;5016463;28;20026;-59
2022/04/16 00:35:21;;;;;;;3.85;1.40;;;18.90;60.50;;;;;;5015805;28;20041;-59
2022/04/16 00:37:47;;;;;;;2.58;1.20;;;18.90;61.70;;;;;;5014106;28;20109;-59
2022/04/16 00:40:13;;;;;;;2.15;1.50;;;18.90;60.80;;;;;;5019106;28;20738;-59
2022/04/16 00:42:44;;;;;;;3.00;1.45;;;18.90;60.80;;;;;;5020644;28;20022;-59
2022/04/16 00:45:10;;;;;;;2.10;1.30;;;18.90;60.80;;;;;;5016427;28;20057;-59
2022/04/16 00:47:36;;;;;;;2.83;1.50;;;18.90;60.80;;;;;;5017794;28;20474;-59
2022/04/16 00:50:05;;;;;;;2.53;1.27;;;18.90;60.80;;;;;;5019852;28;20041;-60
2022/04/16 00:52:31;;;;;;;2.10;1.38;;;18.90;60.80;;;;;;5016809;28;20101;-59
2022/04/16 00:54:58;;;;;;;2.63;1.50;;;18.90;60.80;;;;;;5017998;28;20481;-59
2022/04/16 00:57:24;;;;;;;2.58;1.40;;;18.90;60.80;;;;;;5016847;28;20139;-59
2022/04/16 00:59:49;;;;;;;3.33;1.30;;;18.90;60.80;;;;;;5016408;28;20029;-59
2022/04/16 01:02:15;;;;;;;2.03;1.02;;;18.80;60.70;;;;;;5018286;28;20040;-59
2022/04/16 01:04:41;;;;;;;2.05;1.40;;;18.90;60.80;;;;;;5024091;28;20055;-59
2022/04/16 01:07:07;;;;;;;1.85;1.17;;;18.80;60.70;;;;;;5023861;28;20033;-59
2022/04/16 01:09:33;;;;;;;3.45;1.30;;;18.80;60.70;;;;;;5020352;28;20068;-58
2022/04/16 01:11:59;;;;;;;2.15;1.20;;;18.80;60.80;;;;;;5018694;28;20090;-59
2022/04/16 01:14:25;;;;;;;2.25;1.50;;;18.80;60.70;;;;;;5018949;28;20024;-58
2022/04/16 01:16:55;;;;;;;1.73;1.30;;;18.80;60.50;;;;;;5017437;28;20029;-59
2022/04/16 01:19:21;;;;;;;3.08;1.30;;;18.80;60.50;;;;;;5015840;28;20037;-59
2022/04/16 01:21:48;;;;;;;2.33;1.20;;;18.80;60.70;;;;;;5018093;28;20524;-59
2022/04/16 01:24:14;;;;;;;1.83;1.10;;;18.80;60.70;;;;;;5019832;28;20053;-59
2022/04/16 01:26:41;;;;;;;1.73;1.20;;;18.80;60.70;;;;;;5015199;28;20026;-59
2022/04/16 01:29:08;;;;;;;1.40;1.10;;;18.80;60.70;;;;;;5017788;28;20061;-59
2022/04/16 01:31:33;;;;;;;1.58;1.00;;;18.80;60.70;;;;;;5014728;28;20072;-59
2022/04/16 01:34:00;;;;;;;2.80;1.30;;;18.80;60.70;;;;;;5021152;28;20065;-59
2022/04/16 01:36:29;;;;;;;2.10;1.30;;;18.80;60.70;;;;;;5017252;28;20042;-59
2022/04/16 01:38:58;;;;;;;1.58;1.23;;;18.80;60.70;;;;;;5017976;28;20386;-59
2022/04/16 01:41:24;;;;;;;1.80;1.40;;;18.70;60.70;;;;;;5016339;28;20538;-59
2022/04/16 01:43:50;;;;;;;1.63;1.10;;;18.70;60.70;;;;;;5021199;28;20072;-59
2022/04/16 01:46:16;;;;;;;2.53;1.23;;;18.70;60.70;;;;;;5017171;28;20077;-58
2022/04/16 01:48:42;;;;;;;1.55;1.10;;;18.70;60.70;;;;;;5017993;28;20085;-59
2022/04/16 01:51:10;;;;;;;1.30;1.20;;;18.70;60.70;;;;;;5019188;28;20061;-59
2022/04/16 01:53:36;;;;;;;1.52;1.15;;;18.70;60.70;;;;;;5018777;28;20457;-59
2022/04/16 01:56:01;;;;;;;1.60;1.20;;;18.70;60.70;;;;;;5016113;28;20099;-59
2022/04/16 01:58:27;;;;;;;1.25;1.10;;;18.70;60.70;;;;;;5015671;28;20049;-59
2022/04/16 02:00:54;;;;;;;1.63;1.30;;;18.70;60.70;;;;;;5024632;28;20022;-59
2022/04/16 02:03:21;;;;;;;1.67;1.20;;;18.70;60.70;;;;;;5017570;28;20036;-59
2022/04/16 02:05:47;;;;;;;1.35;1.15;;;18.70;60.70;;;;;;5019569;28;20033;-59
2022/04/16 02:08:12;;;;;;;2.67;1.40;;;18.70;60.70;;;;;;5025188;28;20084;-59
2022/04/16 02:10:38;;;;;;;1.92;1.30;;;18.70;60.70;;;;;;5016541;28;20034;-59
2022/04/16 02:13:04;;;;;;;2.60;1.40;;;18.70;60.70;;;;;;5023535;28;20501;-59
2022/04/16 02:15:30;;;;;;;1.58;1.13;;;18.60;60.60;;;;;;5012500;28;20610;-59
2022/04/16 02:17:56;;;;;;;1.88;1.15;;;18.60;60.70;;;;;;5021049;28;20034;-59
2022/04/16 02:20:23;;;;;;;1.63;1.20;;;18.60;60.60;;;;;;5018725;28;20065;-59
2022/04/16 02:22:48;;;;;;;1.15;1.00;;;18.60;60.60;;;;;;5016617;28;20044;-59
2022/04/16 02:25:16;;;;;;;1.38;1.20;;;18.60;60.60;;;;;;5014588;28;20037;-59
2022/04/16 02:27:42;;;;;;;1.65;1.20;;;18.60;60.60;;;;;;5022332;28;20429;-59
2022/04/16 02:30:10;;;;;;;1.85;1.20;;;18.60;60.60;;;;;;5018643;28;20026;-58
2022/04/16 02:32:40;;;;;;;1.23;1.05;;;18.60;60.60;;;;;;5018831;28;20026;-59
2022/04/16 02:35:07;;;;;;;2.03;1.20;;;18.60;60.60;;;;;;5016317;28;20508;-59
2022/04/16 02:37:32;;;;;;;2.25;1.10;;;18.60;60.60;;;;;;5013186;28;20113;-59
2022/04/16 02:39:58;;;;;;;1.35;1.10;;;18.60;60.60;;;;;;5020101;28;20093;-59
2022/04/16 02:42:24;;;;;;;2.30;1.30;;;18.60;60.60;;;;;;5017336;28;20030;-59
2022/04/16 02:47:33;;;;;;;1.52;1.17;;;18.60;60.70;;;;;;5013938;28;20102;-59
2022/04/16 02:49:59;;;;;;;1.30;1.20;;;18.50;60.60;;;;;;5018309;28;20503;-59
2022/04/16 02:52:25;;;;;;;1.35;1.05;;;18.50;60.60;;;;;;5018963;28;20033;-59
2022/04/16 02:54:54;;;;;;;1.48;1.10;;;18.50;60.60;;;;;;5015265;28;20061;-59
2022/04/16 02:57:20;;;;;;;1.90;1.30;;;18.50;60.60;;;;;;5014026;28;20026;-59
2022/04/16 02:59:46;;;;;;;1.65;1.20;;;18.50;60.60;;;;;;5019736;28;20159;-59
2022/04/16 03:02:13;;;;;;;1.67;1.17;;;18.50;60.60;;;;;;5013580;28;20124;-59
2022/04/16 03:04:39;;;;;;;1.92;1.20;;;18.50;60.60;;;;;;5018929;28;20048;-59
2022/04/16 03:07:05;;;;;;;1.20;1.05;;;18.50;60.60;;;;;;5014378;28;20494;-59
2022/04/16 03:09:30;;;;;;;1.80;1.13;;;18.50;60.60;;;;;;5013847;28;20112;-59
2022/04/16 03:11:56;;;;;;;1.50;1.08;;;18.50;60.60;;;;;;5013766;28;20064;-59
2022/04/16 03:19:50;;;;;;;1.77;1.08;;;18.50;60.60;;;;;;5019312;28;20032;-59
2022/04/16 03:22:16;;;;;;;1.27;1.05;;;18.40;60.50;;;;;;5015465;28;20029;-59
2022/04/16 03:24:41;;;;;;;2.10;1.20;;;18.50;60.60;;;;;;5016624;28;20025;-59
2022/04/16 03:27:07;;;;;;;0.95;0.95;;;18.40;60.50;;;;;;5016802;28;20037;-59
2022/04/16 03:29:34;;;;;;;1.20;1.05;;;18.40;60.50;;;;;;5016690;28;20029;-59
2022/04/16 03:31:59;;;;;;;1.35;1.00;;;18.40;60.50;;;;;;5015116;28;20105;-59
2022/04/16 03:34:25;;;;;;;1.35;1.10;;;18.40;60.50;;;;;;5014748;28;20106;-59
2022/04/16 03:36:51;;;;;;;1.25;1.15;;;18.40;60.50;;;;;;5024431;28;20057;-59
2022/04/16 03:39:16;;;;;;;1.33;1.10;;;18.40;60.50;;;;;;5014621;28;20072;-59
2022/04/16 03:41:42;;;;;;;1.45;1.10;;;18.40;60.50;;;;;;5018543;28;20029;-59
2022/04/16 03:44:08;;;;;;;1.13;1.02;;;18.40;60.50;;;;;;5018832;28;20057;-59
2022/04/16 03:46:33;;;;;;;1.73;1.00;;;18.40;60.60;;;;;;5010951;28;20438;-59
2022/04/16 03:48:59;;;;;;;1.20;1.10;;;18.40;60.60;;;;;;5015556;28;20446;-59
2022/04/16 03:51:26;;;;;;;1.10;0.90;;;18.40;60.50;;;;;;5022273;28;20029;-59
2022/04/16 03:53:52;;;;;;;1.40;1.10;;;18.30;60.50;;;;;;5016072;28;20030;-59
2022/04/16 04:01:48;;;;;;;1.73;1.13;;;18.30;60.50;;;;;;5021568;28;20514;-59
2022/04/16 04:04:13;;;;;;;1.17;1.00;;;18.30;60.50;;;;;;5012381;28;20018;-59
2022/04/16 04:06:40;;;;;;;1.52;1.08;;;18.30;60.50;;;;;;5016754;28;20410;-59
2022/04/16 04:09:06;;;;;;;1.60;1.20;;;18.30;60.50;;;;;;5013737;28;20022;-59
2022/04/16 04:11:33;;;;;;;1.77;1.13;;;18.30;60.50;;;;;;5049340;28;20456;-59
2022/04/16 04:14:06;;;;;;;3.90;1.17;;;18.30;60.50;;;;;;5016344;28;20406;-59
2022/04/16 04:16:31;;;;;;;2.22;1.48;;;18.30;60.50;;;;;;5011662;28;20516;-59
2022/04/16 04:18:57;;;;;;;2.67;1.60;;;18.30;60.50;;;;;;5022423;28;20037;-59
2022/04/16 04:21:23;;;;;;;3.10;1.40;;;18.20;60.00;;;;;;5020560;28;20033;-59
2022/04/16 04:23:48;;;;;;;1.95;1.40;;;18.30;60.50;;;;;;5019389;28;20811;-59
2022/04/16 04:26:14;;;;;;;2.20;1.60;;;18.20;60.40;;;;;;5024461;28;20537;-59
2022/04/16 04:28:41;;;;;;;2.47;1.70;;;18.20;60.40;;;;;;5019877;28;20160;-59
2022/04/16 04:31:10;;;;;;;2.40;1.55;;;18.20;60.40;;;;;;5018227;28;20029;-59
2022/04/16 04:33:36;;;;;;;3.10;1.70;;;18.20;60.40;;;;;;5024947;28;20025;-59
2022/04/16 04:36:01;;;;;;;2.53;1.60;;;18.20;60.30;;;;;;5020239;28;20137;-60
2022/04/16 04:38:27;;;;;;;2.00;1.45;;;18.20;60.40;;;;;;5016669;28;20121;-59
2022/04/16 04:40:52;;;;;;;2.80;1.80;;;18.20;60.20;;;;;;5021659;28;20450;-59
2022/04/16 04:43:18;;;;;;;2.90;1.73;;;18.20;60.30;;;;;;5022979;28;20592;-59
2022/04/16 04:45:46;;;;;;;2.15;1.63;;;18.20;60.10;;;;;;5020383;28;20132;-59
2022/04/16 04:48:12;;;;;;;2.25;1.75;;;18.20;60.10;;;;;;5018955;28;20077;-59
2022/04/16 04:50:37;;;;;;;2.13;1.73;;;18.20;59.70;;;;;;5018577;28;20414;-59
2022/04/16 04:53:03;;;;;;;2.65;1.80;;;18.20;60.30;;;;;;5020781;28;20680;-59
2022/04/16 04:55:29;;;;;;;2.70;1.85;;;18.20;60.20;;;;;;5025054;28;20056;-59
2022/04/16 04:57:55;;;;;;;3.88;1.90;;;18.10;60.10;;;;;;5022876;28;20047;-59
2022/04/16 05:00:21;;;;;;;3.92;2.00;;;18.20;60.20;;;;;;5022062;28;20025;-59
2022/04/16 05:02:47;;;;;;;3.20;1.80;;;18.10;60.20;;;;;;5023051;28;20025;-59
2022/04/16 05:05:14;;;;;;;3.70;1.80;;;18.10;60.00;;;;;;5016849;28;20461;-59
2022/04/16 05:07:40;;;;;;;3.20;1.98;;;18.10;60.10;;;;;;5025337;28;20470;-59
2022/04/16 05:10:06;;;;;;;3.45;2.22;;;18.10;60.00;;;;;;5022817;28;20029;-59
2022/04/16 05:12:31;;;;;;;3.00;1.90;;;18.10;60.00;;;;;;5020539;28;20049;-59
2022/04/16 05:14:57;;;;;;;2.90;2.05;;;18.10;59.70;;;;;;5017044;28;20026;-59
2022/04/16 05:17:23;;;;;;;3.15;2.00;;;18.10;59.50;;;;;;5017410;28;20036;-59
2022/04/16 05:19:48;;;;;;;3.40;1.90;;;18.10;59.90;;;;;;5016231;28;20173;-58
2022/04/16 05:22:14;;;;;;;2.63;1.90;;;18.10;59.70;;;;;;5016814;28;20037;-59
2022/04/16 05:24:39;;;;;;;3.50;2.20;;;18.00;59.80;;;;;;5020806;28;20478;-59
2022/04/16 05:27:05;;;;;;;3.30;2.00;;;18.00;59.70;;;;;;5018734;28;20021;-58
2022/04/16 05:29:48;;;;;;;3.50;2.10;;;18.10;59.80;;;;;;5017024;28;20500;-59
2022/04/16 05:32:16;;;;;;;3.58;1.90;;;18.00;59.70;;;;;;5017260;28;20551;-59
2022/04/16 05:34:42;;;;;;;2.85;2.00;;;18.00;59.80;;;;;;5021299;28;20037;-59
2022/04/16 05:37:07;;;;;;;2.58;2.00;;;18.00;59.70;;;;;;5019702;28;20037;-59
2022/04/16 05:39:33;;;;;;;3.28;2.08;;;18.00;59.80;;;;;;5017772;28;20531;-59
2022/04/16 05:41:59;;;;;;;3.08;1.80;;;18.00;59.70;;;;;;5019004;28;20096;-59
2022/04/16 05:44:24;;;;;;;3.38;2.10;;;18.00;59.80;;;;;;5019309;28;20048;-59
2022/04/16 05:46:50;;;;;;;4.55;2.30;;;18.00;59.70;;;;;;5018696;28;20072;-59
2022/04/16 05:49:15;;;;;;;4.28;2.20;;;18.00;59.60;;;;;;5015312;28;20028;-59
2022/04/16 05:51:41;;;;;;;2.92;2.00;;;18.00;59.70;;;;;;5019850;28;20407;-59
2022/04/16 05:54:07;;;;;;;3.20;2.13;;;18.00;59.70;;;;;;5020437;28;20467;-59
2022/04/16 05:56:33;;;;;;;3.00;2.25;;;18.00;59.70;;;;;;5018347;28;20037;-58
2022/04/16 05:59:00;;;;;;;3.08;2.08;;;18.00;59.60;;;;;;5020977;28;20022;-59
2022/04/16 06:01:25;;;;;;;3.50;1.83;;;17.90;59.70;;;;;;5014431;28;20618;-59
2022/04/16 06:03:51;;;;;;;5.43;2.28;;;18.00;59.70;;;;;;5020663;28;20026;-59
2022/04/16 06:06:16;;;;;;;4.65;2.20;;;17.90;59.60;;;;;;5019296;28;20029;-58
2022/04/16 06:08:42;;;;;;;3.35;2.08;;;17.90;59.50;;;;;;5023943;28;20030;-59
2022/04/16 06:11:08;;;;;;;2.95;1.80;;;17.90;59.60;;;;;;5016210;28;20065;-58
2022/04/16 06:13:34;;;;;;;3.28;2.08;;;17.90;59.50;;;;;;5019842;28;20029;-58
2022/04/16 06:16:00;;;;;;;3.42;1.98;;;17.90;59.50;;;;;;5022366;28;20044;-59
2022/04/16 06:18:26;;;;;;;2.70;1.90;;;17.90;59.50;;;;;;5018075;28;20064;-59
2022/04/16 06:20:52;;;;;;;3.28;2.10;;;17.90;59.50;;;;;;5020412;28;20045;-58
2022/04/16 06:23:19;;;;;;;3.72;2.20;;;17.90;59.60;;;;;;5013720;28;20498;-59
2022/04/16 06:25:45;;;;;;;3.70;1.90;;;17.90;59.50;;;;;;5019395;28;20029;-59
2022/04/16 06:28:10;;;;;;;3.65;1.88;;;17.90;59.50;;;;;;5019330;28;20033;-59
2022/04/16 06:30:36;;;;;;;2.67;1.80;;;17.90;59.50;;;;;;5015613;28;20651;-59
2022/04/16 06:33:02;;;;;;;3.03;1.90;;;17.80;59.40;;;;;;5015905;28;20791;-59
2022/04/16 06:35:27;;;;;;;3.75;2.00;;;17.80;59.50;;;;;;5018410;28;20569;-59
2022/04/16 06:37:53;;;;;;;4.88;2.25;;;17.80;59.10;;;;;;5017351;28;20096;-59
2022/04/16 06:40:18;;;;;;;3.65;2.10;;;17.80;59.60;;;;;;5014223;28;20509;-59
2022/04/16 06:42:44;;;;;;;3.80;2.13;;;17.80;59.70;;;;;;5021601;28;20032;-59
2022/04/16 06:45:13;;;;;;;4.22;2.17;;;17.80;59.20;;;;;;5007155;28;20029;-59
2022/04/16 06:47:39;;;;;;;5.43;2.00;;;17.90;59.60;;;;;;5015726;28;20517;-59
2022/04/16 06:50:05;;;;;;;4.85;2.00;;;17.90;59.80;;;;;;5020572;28;20053;-59
2022/04/16 06:52:31;;;;;;;6.20;1.80;;;17.90;61.10;;;;;;5019879;28;20076;-59
2022/04/16 06:55:04;;;;;;;4.10;1.85;;;18.00;61.60;;;;;;5019499;28;20642;-59
2022/04/16 06:57:29;;;;;;;5.68;1.90;;;18.00;61.70;;;;;;5022212;28;20128;-59
2022/04/16 06:59:57;;;;;;;3.00;1.70;;;18.00;61.90;;;;;;5021129;28;20472;-59
2022/04/16 07:02:22;;;;;;;4.53;1.70;;;18.00;61.70;;;;;;5019797;28;20064;-59
2022/04/16 07:04:48;;;;;;;5.25;1.80;;;18.00;62.00;;;;;;5015271;28;20064;-59
2022/04/16 07:07:14;;;;;;;5.50;1.83;;;18.00;61.90;;;;;;5019979;28;20033;-59
2022/04/16 07:09:40;;;;;;;5.72;1.70;;;18.00;61.70;;;;;;5017172;28;20090;-59
2022/04/16 07:12:07;;;;;;;4.00;1.45;;;18.00;61.40;;;;;;5030062;28;20033;-59
2022/04/16 07:14:33;;;;;;;5.40;2.00;;;18.00;61.50;;;;;;5017845;28;20877;-59
2022/04/16 07:17:03;;;;;;;8.98;2.30;;;18.00;62.10;;;;;;5022382;28;20036;-59
2022/04/16 07:19:30;;;;;;;7.57;1.95;;;18.00;63.90;;;;;;5026100;28;20037;-59
2022/04/16 07:21:56;;;;;;;5.63;1.60;;;18.10;64.00;;;;;;5014056;28;20030;-59
2022/04/16 07:24:22;;;;;;;5.68;1.60;;;18.10;64.20;;;;;;5016152;28;20044;-59
2022/04/16 07:26:48;;;;;;;8.90;1.88;;;18.10;63.30;;;;;;5016790;28;20021;-59
2022/04/16 07:29:14;;;;;;;3.78;1.65;;;18.00;62.60;;;;;;5044759;28;20026;-59
2022/04/16 07:31:40;;;;;;;7.82;1.80;;;18.00;62.00;;;;;;5019032;28;20043;-59
2022/04/16 07:34:06;;;;;;;7.13;1.80;;;18.10;63.10;;;;;;5015284;28;20026;-59
2022/04/16 07:36:32;;;;;;;7.28;1.70;;;18.10;62.60;;;;;;5018757;28;20045;-58
2022/04/16 07:38:59;;;;;;;7.25;1.80;;;18.10;62.60;;;;;;5017064;28;20030;-59
2022/04/16 07:41:24;;;;;;;7.82;1.98;;;18.10;62.30;;;;;;5009389;28;20487;-59
2022/04/16 07:43:50;;;;;;;5.97;1.60;;;18.10;62.30;;;;;;5018693;28;20053;-59
2022/04/16 07:46:21;;;;;;;7.75;1.60;;;18.10;62.30;;;;;;5025713;28;20073;-59
2022/04/16 07:48:47;;;;;;;4.63;1.40;;;18.10;62.40;;;;;;5024232;28;20028;-59
2022/04/16 07:51:12;;;;;;;3.28;1.58;;;18.10;62.30;;;;;;5017942;28;20036;-59
2022/04/16 07:53:38;;;;;;;4.32;1.40;;;18.10;62.30;;;;;;5019547;28;20029;-59
2022/04/16 07:56:04;;;;;;;3.75;1.30;;;18.10;62.30;;;;;;5016089;28;20045;-58
2022/04/16 07:58:29;;;;;;;5.95;1.70;;;18.10;62.40;;;;;;5017841;28;20025;-58
2022/04/16 08:00:55;;;;;;;4.15;1.23;;;18.10;62.20;;;;;;5019594;28;20521;-58
2022/04/16 08:03:20;;;;;;;2.90;1.25;;;18.20;63.30;;;;;;5015314;28;20029;-58
2022/04/16 08:05:46;;;;;;;2.85;1.38;;;18.10;62.20;;;;;;5013646;28;20693;-58
2022/04/16 08:08:12;;;;;;;4.70;1.40;;;18.20;61.90;;;;;;5014757;28;20041;-58
2022/04/16 08:10:38;;;;;;;4.47;1.30;;;18.10;62.00;;;;;;5018251;28;20018;-58
2022/04/16 08:13:05;;;;;;;7.53;2.00;;;18.10;62.10;;;;;;5016195;28;20053;-58
2022/04/16 08:15:31;;;;;;;7.18;2.05;;;18.10;64.00;;;;;;5016593;28;20050;-59
2022/04/16 08:17:57;;;;;;;6.00;1.98;;;18.20;65.40;;;;;;4998435;28;20096;-59
2022/04/16 08:20:23;;;;;;;7.47;1.60;;;18.30;65.70;;;;;;5017461;28;23242;-59
2022/04/16 08:22:48;;;;;;;4.57;1.50;;;18.30;64.50;;;;;;5009512;28;20036;-57
2022/04/16 08:27:49;;;;;;;6.90;1.60;;;18.30;64.60;;;;;;5018796;28;20029;-59
2022/04/16 08:30:15;;;;;;;5.70;1.50;;;18.30;63.70;;;;;;5015767;28;20018;-59
2022/04/16 08:32:41;;;;;;;5.15;1.65;;;18.30;63.50;;;;;;5021052;28;20076;-59
2022/04/16 08:35:09;;;;;;;6.05;1.75;;;18.30;63.70;;;;;;5012176;28;20030;-59
2022/04/16 08:37:34;;;;;;;5.60;1.73;;;18.30;63.80;;;;;;5009127;28;20040;-59
2022/04/16 08:40:00;;;;;;;7.13;1.70;;;18.30;63.70;;;;;;5010924;28;20033;-59
2022/04/16 08:42:26;;;;;;;3.75;1.30;;;18.40;63.60;;;;;;5014473;28;20109;-59
2022/04/16 08:44:51;;;;;;;7.43;1.83;;;18.40;63.60;;;;;;5012513;28;20052;-58
2022/04/16 08:47:17;;;;;;;5.20;1.40;;;18.40;63.50;;;;;;5012759;28;20055;-59
2022/04/16 08:49:44;;;;;;;6.40;1.83;;;18.40;63.50;;;;;;5010440;28;20087;-59
2022/04/16 08:52:10;;;;;;;5.75;1.60;;;18.40;63.50;;;;;;5013527;28;20493;-59
2022/04/16 08:54:36;;;;;;;3.70;1.60;;;18.40;63.50;;;;;;5012550;28;20686;-59
2022/04/16 08:57:02;;;;;;;6.93;1.60;;;18.40;63.40;;;;;;5014942;28;20100;-59
2022/04/16 08:59:28;;;;;;;5.63;1.55;;;18.40;63.30;;;;;;5014764;28;20390;-59
2022/04/16 09:01:53;;;;;;;2.58;1.42;;;18.50;63.50;;;;;;5014308;28;20060;-59
2022/04/16 09:04:23;;;;;;;7.00;1.70;;;18.50;63.40;;;;;;5009789;28;20445;-58
2022/04/16 09:06:59;;;;;;;4.47;1.40;;;18.50;63.50;;;;;;5026750;28;20037;-57
2022/04/16 09:09:25;;;;;;;3.85;1.70;;;18.50;63.30;;;;;;5021394;28;20096;-59
2022/04/16 09:11:50;;;;;;;4.30;1.40;;;18.50;63.20;;;;;;5014319;28;20029;-59
2022/04/16 09:14:16;;;;;;;4.10;1.30;;;18.50;63.10;;;;;;5019092;28;20053;-59
2022/04/16 09:16:42;;;;;;;7.72;1.63;;;18.50;63.20;;;;;;5019992;28;20064;-58
2022/04/16 09:19:11;;;;;;;5.80;1.40;;;18.50;63.10;;;;;;5018746;28;20550;-59
2022/04/16 09:21:37;;;;;;;4.38;1.73;;;18.50;62.90;;;;;;5018736;28;20116;-59
2022/04/16 09:24:03;;;;;;;7.18;1.90;;;18.50;63.00;;;;;;5019269;28;20097;-59
2022/04/16 09:26:36;;;;;;;5.45;1.70;;;18.50;62.50;;;;;;5014087;28;20033;-59
2022/04/16 09:29:10;;;;;;;4.05;1.60;;;18.50;62.90;;;;;;5017959;28;20034;-58
2022/04/16 09:31:39;;;;;;;3.95;1.83;;;18.50;62.90;;;;;;5017428;28;20628;-58
2022/04/16 09:34:06;;;;;;;6.38;1.92;;;18.50;62.70;;;;;;5020951;28;20025;-59
2022/04/16 09:36:38;;;;;;;4.65;1.80;;;18.50;62.80;;;;;;5015889;28;20049;-59
2022/04/16 09:39:04;;;;;;;4.57;1.83;;;18.60;62.90;;;;;;5023405;28;20026;-59
2022/04/16 09:41:34;;;;;;;2.92;1.75;;;18.60;63.60;;;;;;5017421;28;20037;-59
2022/04/16 09:44:00;;;;;;;4.93;2.10;;;18.60;63.40;;;;;;5020194;28;20482;-58
2022/04/16 09:46:28;;;;;;;6.13;2.40;;;18.60;63.80;;;;;;5020387;28;20423;-58
2022/04/16 09:49:03;;;;;;;10.32;2.20;;;18.60;63.60;;;;;;5016516;28;20025;-58
2022/04/16 09:51:33;;;;;;;8.43;2.30;;;18.70;64.20;;;;;;5025412;28;20041;-58
2022/04/16 09:53:59;;;;;;;4.80;2.10;;;18.70;64.20;;;;;;5016466;28;20030;-58
2022/04/16 09:56:27;;;;;;;6.32;2.10;;;18.70;64.50;;;;;;5025946;28;20033;-58
2022/04/16 09:58:53;;;;;;;6.90;1.90;;;18.70;64.90;;;;;;5013082;28;20061;-58
2022/04/16 10:01:21;;;;;;;5.60;2.17;;;18.70;64.80;;;;;;5021354;28;20115;-58
2022/04/16 10:03:46;;;;;;;9.77;2.00;;;18.80;65.50;;;;;;5012331;28;20034;-58
2022/04/16 10:06:12;;;;;;;6.07;2.10;;;18.80;64.20;;;;;;5018179;28;20036;-57
2022/04/16 10:08:38;;;;;;;5.72;1.83;;;18.80;64.10;;;;;;5024356;28;20044;-58
2022/04/16 10:11:04;;;;;;;7.35;2.20;;;18.80;64.10;;;;;;5017568;28;20033;-58
2022/04/16 10:13:32;;;;;;;5.25;2.20;;;18.80;63.20;;;;;;5024420;28;20036;-59
2022/04/16 10:15:57;;;;;;;6.25;2.15;;;18.70;63.00;;;;;;5026965;28;20167;-58
2022/04/16 10:18:26;;;;;;;7.18;2.40;;;18.70;63.90;;;;;;5014694;28;20711;-59
2022/04/16 10:20:56;;;;;;;8.13;2.60;;;18.70;63.50;;;;;;5022254;28;20155;-58
2022/04/16 10:23:30;;;;;;;8.73;2.60;;;18.70;63.10;;;;;;5015963;28;20111;-58
2022/04/16 10:26:06;;;;;;;5.45;2.45;;;18.70;63.60;;;;;;5017741;28;20431;-58
2022/04/16 10:28:40;;;;;;;8.45;2.60;;;18.80;63.50;;;;;;5020937;28;20052;-59
2022/04/16 10:31:07;;;;;;;5.10;2.45;;;18.80;63.40;;;;;;5019019;28;20021;-58
2022/04/16 10:33:32;;;;;;;5.93;2.20;;;18.80;63.30;;;;;;5016782;28;20466;-58
2022/04/16 10:36:05;;;;;;;6.38;2.30;;;18.80;63.00;;;;;;5022367;28;20042;-59
2022/04/16 10:38:33;;;;;;;7.35;2.40;;;18.80;63.30;;;;;;5019015;28;20029;-58
2022/04/16 10:41:00;;;;;;;6.80;2.90;;;18.90;63.60;;;;;;5021375;28;20464;-58
2022/04/16 10:43:30;;;;;;;6.45;2.60;;;18.90;63.20;;;;;;5024549;28;20028;-58
2022/04/16 10:46:04;;;;;;;5.78;2.25;;;18.80;63.10;;;;;;5014927;28;20073;-59
2022/04/16 10:48:34;;;;;;;6.80;2.92;;;18.90;63.00;;;;;;5021979;28;20120;-58
2022/04/16 10:51:00;;;;;;;8.02;3.20;;;18.90;63.00;;;;;;5023242;28;20037;-58
2022/04/16 10:53:27;;;;;;;8.70;3.28;;;18.90;63.60;;;;;;5018795;28;20029;-58
2022/04/16 10:55:53;;;;;;;7.18;3.45;;;18.90;63.70;;;;;;5016202;28;20498;-59
2022/04/16 10:58:26;;;;;;;11.13;3.55;;;19.00;64.50;;;;;;5017830;28;20032;-58
2022/04/16 11:00:52;;;;;;;8.45;3.67;;;19.00;64.00;;;;;;5018843;28;20091;-58
2022/04/16 11:03:28;;;;;;;7.05;3.95;;;19.00;63.70;;;;;;5019866;28;20017;-58
2022/04/16 11:06:03;;;;;;;8.25;4.10;;;19.00;64.30;;;;;;5017930;28;20030;-58
2022/04/16 11:08:29;;;;;;;7.35;3.65;;;19.00;64.20;;;;;;5015492;28;20103;-58
2022/04/16 11:10:57;;;;;;;9.40;3.85;;;19.00;64.00;;;;;;5018586;28;20025;-58
2022/04/16 11:13:22;;;;;;;8.65;3.58;;;19.00;63.70;;;;;;5015156;28;20470;-58
2022/04/16 11:15:48;;;;;;;6.93;3.90;;;19.00;63.80;;;;;;5014555;28;20061;-59
2022/04/16 11:18:15;;;;;;;8.18;3.72;;;19.10;64.00;;;;;;5019340;28;20064;-58
2022/04/16 11:20:43;;;;;;;6.63;3.60;;;19.10;63.70;;;;;;5015459;28;20022;-58
2022/04/16 11:23:12;;;;;;;9.93;4.13;;;19.10;63.90;;;;;;5017849;28;20041;-58
2022/04/16 11:34:20;;;;;;;8.02;3.80;;;19.10;63.90;;;;;;5017395;28;20041;-59
2022/04/16 11:36:52;;;;;;;7.32;3.67;;;19.20;64.00;;;;;;5025278;28;20037;-58
2022/04/16 11:39:39;;;;;;;7.18;4.20;;;19.20;63.50;;;;;;5020265;28;20029;-58
2022/04/16 11:42:07;;;;;;;9.25;3.65;;;19.20;63.90;;;;;;5015589;28;20037;-58
2022/04/16 11:44:41;;;;;;;6.68;4.10;;;19.20;63.90;;;;;;5021980;28;20034;-58
2022/04/16 11:47:20;;;;;;;7.05;4.03;;;19.30;63.90;;;;;;5014414;28;20525;-59
2022/04/16 11:49:52;;;;;;;7.43;3.53;;;19.30;63.80;;;;;;5014631;28;20033;-58
2022/04/16 11:52:30;;;;;;;8.65;3.55;;;19.30;63.60;;;;;;5011277;28;20405;-58
2022/04/16 11:55:07;;;;;;;8.75;3.65;;;19.40;64.50;;;;;;5020623;28;20044;-58
2022/04/16 11:57:33;;;;;;;8.57;3.80;;;19.50;63.60;;;;;;5016743;28;20041;-58
2022/04/16 12:00:01;;;;;;;8.57;3.60;;;19.50;63.80;;;;;;5013073;28;20513;-58
2022/04/16 12:02:31;;;;;;;6.53;3.50;;;19.60;63.50;;;;;;5016193;28;20029;-59
2022/04/16 12:05:09;;;;;;;7.63;3.40;;;19.60;63.40;;;;;;5017612;28;20017;-58
2022/04/16 12:07:35;;;;;;;6.97;3.47;;;19.60;63.20;;;;;;5016957;28;20037;-58
2022/04/16 12:10:02;;;;;;;6.70;3.03;;;19.70;63.10;;;;;;5021154;28;20021;-58
2022/04/16 12:12:28;;;;;;;6.55;2.80;;;19.80;63.20;;;;;;5018003;28;20414;-59
2022/04/16 12:14:53;;;;;;;6.00;3.20;;;19.80;63.00;;;;;;5017741;28;20026;-58
2022/04/16 12:17:24;;;;;;;6.18;2.63;;;19.80;63.10;;;;;;5012028;28;20084;-60
2022/04/16 12:20:06;;;;;;;7.03;2.63;;;19.90;63.10;;;;;;5019842;28;20034;-60
2022/04/16 12:22:33;;;;;;;5.65;2.40;;;20.00;63.10;;;;;;5018133;28;20022;-60
2022/04/16 12:25:11;;;;;;;7.10;2.50;;;20.00;62.90;;;;;;5022824;28;20084;-60
2022/04/16 12:27:43;;;;;;;6.25;2.22;;;20.10;62.80;;;;;;5016818;28;20144;-60
2022/04/16 12:30:11;;;;;;;7.85;2.72;;;20.10;62.60;;;;;;5022307;28;20548;-59
2022/04/16 12:32:36;;;;;;;7.47;2.30;;;20.10;62.40;;;;;;5016278;28;20505;-61
2022/04/16 12:35:02;;;;;;;5.72;2.47;;;20.20;62.40;;;;;;5015768;28;20033;-61
2022/04/16 12:37:28;;;;;;;6.00;2.20;;;20.20;62.30;;;;;;5017596;28;20117;-63
2022/04/16 12:39:54;;;;;;;8.73;2.50;;;20.20;62.00;;;;;;5018182;28;20104;-61
2022/04/16 12:42:19;;;;;;;5.65;2.17;;;20.30;61.90;;;;;;5021217;28;20017;-60
2022/04/16 12:44:45;;;;;;;5.57;2.25;;;20.30;61.70;;;;;;5015629;28;20120;-61
2022/04/16 12:47:13;;;;;;;9.07;2.55;;;20.40;61.60;;;;;;5017298;28;20505;-61
2022/04/16 12:49:41;;;;;;;7.68;2.40;;;20.40;61.50;;;;;;5024637;28;20505;-61
2022/04/16 12:52:09;;;;;;;5.57;2.17;;;20.40;61.40;;;;;;5016862;28;20031;-61
2022/04/16 12:54:35;;;;;;;7.43;2.05;;;20.50;61.30;;;;;;5020439;28;20053;-61
2022/04/16 12:57:01;;;;;;;6.88;2.45;;;20.50;61.20;;;;;;5019879;28;20457;-61
2022/04/16 12:59:27;;;;;;;6.55;2.30;;;20.60;61.20;;;;;;5020511;28;20021;-61
2022/04/16 13:01:52;;;;;;;7.43;1.90;;;20.70;61.10;;;;;;5020024;28;20072;-61
2022/04/16 13:04:18;;;;;;;9.38;1.95;;;20.70;61.20;;;;;;5019835;28;20034;-61
2022/04/16 13:06:44;;;;;;;10.10;2.50;;;20.70;61.10;;;;;;5022495;28;20029;-61
2022/04/16 13:09:09;;;;;;;6.53;2.22;;;20.70;61.40;;;;;;5018296;28;20434;-61